createdAt,value
2018-11-20T00:01:05.072Z,100501.95
2018-11-20T00:03:58.786Z,100485.78
2018-11-20T00:06:45.253Z,100490.59
2018-11-20T00:09:41.700Z,100493.56
2018-11-20T00:12:35.291Z,100483.42
2018-11-20T00:15:23.342Z,100487.25
2018-11-20T00:17:57.432Z,100470.39
2018-11-20T00:20:44.087Z,100483.83
2018-11-20T00:23:40.619Z,100478.87
2018-11-20T00:26:30.931Z,100463.30
2018-11-20T00:29:30.980Z,100467.66
2018-11-20T00:32:18.660Z,100464.69
2018-11-20T00:35:06.399Z,100456.81
2018-11-20T00:37:50.512Z,100454.08
2018-11-20T00:40:47.211Z,100435.55
2018-11-20T00:43:34.819Z,100437.36
2018-11-20T00:46:20.811Z,100428.59
2018-11-20T00:49:11.531Z,100431.80
2018-11-20T00:51:59.192Z,100420.64
2018-11-20T00:54:45.411Z,100413.64
2018-11-20T00:57:38.571Z,100420.34
2018-11-20T01:00:27.211Z,100420.44
2018-11-20T01:03:14.907Z,100410.52
2018-11-20T01:06:05.458Z,100408.59
2018-11-20T01:09:02.482Z,100411.19
2018-11-20T01:12:30.946Z,100404.73
2018-11-20T01:15:26.631Z,100401.81
2018-11-20T01:18:13.691Z,100398.70
2018-11-20T01:21:18.991Z,100388.84
2018-11-20T01:23:57.431Z,100403.11
2018-11-20T01:26:50.991Z,100389.22
2018-11-20T01:29:50.788Z,100395.70
2018-11-20T01:32:49.943Z,100390.40
2018-11-20T01:35:42.587Z,100379.45
2018-11-20T01:38:28.331Z,100384.12
2018-11-20T01:41:14.001Z,100372.77
2018-11-20T01:43:49.171Z,100363.01
2018-11-20T01:46:28.391Z,100361.30
2018-11-20T01:49:18.211Z,100357.19
2018-11-20T01:52:01.154Z,100381.17
2018-11-20T01:54:51.120Z,100352.22
2018-11-20T01:57:31.414Z,100349.63
2018-11-20T02:00:24.331Z,100349.72
2018-11-20T02:03:17.283Z,100336.03
2018-11-20T02:06:22.271Z,100324.77
2018-11-20T02:09:24.431Z,100316.73
2018-11-20T02:12:10.053Z,100328.66
2018-11-20T02:15:08.786Z,100321.77
2018-11-20T02:17:58.510Z,100312.69
2018-11-20T02:21:00.413Z,100320.34
2018-11-20T02:23:50.430Z,100312.10
2018-11-20T02:26:43.370Z,100305.06
2018-11-20T02:29:48.330Z,100300.02
2018-11-20T02:32:35.251Z,100292.48
2018-11-20T02:35:28.291Z,100290.52
2018-11-20T02:38:06.471Z,100283.19
2018-11-20T02:40:59.599Z,100287.09
2018-11-20T02:43:49.371Z,100262.96
2018-11-20T02:46:51.553Z,100262.56
2018-11-20T02:49:50.773Z,100256.47
2018-11-20T02:52:36.292Z,100259.38
2018-11-20T02:55:16.263Z,100253.94
2018-11-20T02:58:03.252Z,100252.05
2018-11-20T03:00:56.211Z,100244.11
2018-11-20T03:03:41.657Z,100249.46
2018-11-20T03:06:32.171Z,100232.19
2018-11-20T03:09:18.799Z,100240.53
2018-11-20T03:12:11.811Z,100237.63
2018-11-20T03:14:57.952Z,100228.83
2018-11-20T03:17:47.451Z,100234.10
2018-11-20T03:20:43.072Z,100239.36
2018-11-20T03:23:28.712Z,100238.22
2018-11-20T03:26:19.732Z,100233.48
2018-11-20T03:29:17.560Z,100256.41
2018-11-20T03:32:08.839Z,100238.98
2018-11-20T03:34:55.859Z,100230.45
2018-11-20T03:37:41.299Z,100248.62
2018-11-20T03:40:40.288Z,100229.83
2018-11-20T03:43:45.212Z,100232.12
2018-11-20T03:46:35.138Z,100212.72
2018-11-20T03:49:31.091Z,100225.31
2018-11-20T03:52:35.998Z,100207.00
2018-11-20T03:55:32.143Z,100226.77
2018-11-20T03:58:19.051Z,100223.64
2018-11-20T04:01:04.909Z,100217.99
2018-11-20T04:04:06.771Z,100208.08
2018-11-20T04:06:52.231Z,100200.14
2018-11-20T04:09:51.190Z,100198.22
2018-11-20T04:12:47.319Z,100209.84
2018-11-20T04:15:49.332Z,100214.03
2018-11-20T04:18:39.232Z,100201.59
2018-11-20T04:21:24.751Z,100185.92
2018-11-20T04:24:10.711Z,100187.68
2018-11-20T04:26:57.650Z,100201.59
2018-11-20T04:29:53.790Z,100191.90
2018-11-20T04:32:30.711Z,100191.73
2018-11-20T04:35:19.419Z,100187.84
2018-11-20T04:38:05.978Z,100198.38
2018-11-20T04:40:52.890Z,100190.77
2018-11-20T04:43:49.091Z,100184.43
2018-11-20T04:46:32.691Z,100191.81
2018-11-20T04:49:19.653Z,100168.78
2018-11-20T04:52:05.390Z,100192.91
2018-11-20T04:54:58.031Z,100169.92
2018-11-20T04:58:00.031Z,100172.31
2018-11-20T05:00:46.950Z,100176.50
2018-11-20T05:03:36.750Z,100190.63
2018-11-20T05:06:22.445Z,100158.04
2018-11-20T05:09:05.925Z,100155.97
2018-11-20T05:11:51.693Z,100164.75
2018-11-20T05:14:47.570Z,100167.04
2018-11-20T05:17:37.111Z,100157.12
2018-11-20T05:20:28.161Z,100171.45
2018-11-20T05:23:27.037Z,100161.24
2018-11-20T05:26:29.312Z,100175.04
2018-11-20T05:29:14.851Z,100174.73
2018-11-20T05:31:58.159Z,100165.23
2018-11-20T05:34:54.094Z,100164.14
2018-11-20T05:37:39.518Z,100160.25
2018-11-20T05:40:20.140Z,100167.10
2018-11-20T05:43:09.611Z,100174.52
2018-11-20T05:46:14.629Z,100155.06
2018-11-20T05:49:07.190Z,100168.80
2018-11-20T05:51:52.871Z,100163.30
2018-11-20T05:54:42.535Z,100160.34
2018-11-20T05:57:28.250Z,100160.71
2018-11-20T06:00:09.650Z,100144.91
2018-11-20T06:03:05.978Z,100135.77
2018-11-20T06:05:51.442Z,100151.70
2018-11-20T06:08:50.330Z,100130.52
2018-11-20T06:11:41.950Z,100156.52
2018-11-20T06:14:44.178Z,100153.69
2018-11-20T06:17:40.130Z,100161.86
2018-11-20T06:20:32.858Z,100144.70
2018-11-20T06:23:19.051Z,100160.32
2018-11-20T06:26:13.666Z,100157.42
2018-11-20T06:29:00.632Z,100145.63
2018-11-20T06:31:43.411Z,100144.61
2018-11-20T06:34:39.454Z,100160.73
2018-11-20T06:37:26.447Z,100148.97
2018-11-20T06:40:12.031Z,100143.94
2018-11-20T06:43:01.852Z,100200.53
2018-11-20T06:45:43.631Z,100145.77
2018-11-20T06:48:30.611Z,100138.91
2018-11-20T06:51:17.573Z,100136.84
2018-11-20T06:54:10.531Z,100129.53
2018-11-20T06:57:00.030Z,100126.56
2018-11-20T06:59:55.979Z,100139.91
2018-11-20T07:02:42.958Z,100132.65
2018-11-20T07:05:33.011Z,100139.23
2018-11-20T07:08:21.300Z,100133.05
2018-11-20T07:11:06.590Z,100135.18
2018-11-20T07:14:09.259Z,100138.52
2018-11-20T07:17:09.527Z,100132.89
2018-11-20T07:20:12.212Z,100141.50
2018-11-20T07:22:52.397Z,100138.14
2018-11-20T07:25:48.278Z,100133.48
2018-11-20T07:28:33.667Z,100135.34
2018-11-20T07:31:23.428Z,100143.55
2018-11-20T07:34:19.127Z,100139.29
2018-11-20T07:37:06.364Z,100130.68
2018-11-20T07:39:55.650Z,100119.07
2018-11-20T07:42:47.938Z,100139.08
2018-11-20T07:45:34.959Z,100112.28
2018-11-20T07:48:20.607Z,100091.17
2018-11-20T07:51:13.450Z,100108.55
2018-11-20T07:54:06.070Z,100113.73
2018-11-20T07:56:53.058Z,100122.81
2018-11-20T07:59:34.490Z,100097.50
2018-11-20T08:02:20.942Z,100110.98
2018-11-20T08:05:11.031Z,100103.61
2018-11-20T08:07:58.150Z,100102.31
2018-11-20T08:10:42.478Z,100117.31
2018-11-20T08:13:27.938Z,100116.88
2018-11-20T08:16:14.980Z,100109.53
2018-11-20T08:19:13.850Z,100117.41
2018-11-20T08:21:58.269Z,100102.78
2018-11-20T08:24:52.497Z,100102.84
2018-11-20T08:27:45.539Z,100113.42
2018-11-20T08:30:38.710Z,100096.67
2018-11-20T08:33:24.598Z,100094.54
2018-11-20T08:36:03.170Z,100096.20
2018-11-20T08:38:50.042Z,100099.78
2018-11-20T08:41:43.131Z,100090.34
2018-11-20T08:44:30.451Z,100101.55
2018-11-20T08:47:14.511Z,100072.36
2018-11-20T08:50:06.477Z,100095.84
2018-11-20T08:52:51.982Z,100098.03
2018-11-20T08:55:48.139Z,100075.11
2018-11-20T08:58:44.238Z,100073.05
2018-11-20T09:01:43.158Z,100092.85
2018-11-20T09:04:38.890Z,100089.73
2018-11-20T09:07:21.262Z,100090.26
2018-11-20T09:10:11.503Z,100097.97
2018-11-20T09:12:57.302Z,100088.50
2018-11-20T09:15:53.138Z,100089.73
2018-11-20T09:18:43.003Z,100077.60
2018-11-20T09:21:38.943Z,100058.99
2018-11-20T09:24:31.827Z,100077.08
2018-11-20T09:27:34.260Z,100074.79
2018-11-20T09:30:27.113Z,100115.80
2018-11-20T09:33:16.919Z,100107.41
2018-11-20T09:36:02.459Z,100104.97
2018-11-20T09:38:42.372Z,100112.84
2018-11-20T09:41:41.112Z,100143.03
2018-11-20T09:44:36.572Z,100107.66
2018-11-20T09:47:38.432Z,100135.62
2018-11-20T09:50:20.885Z,100108.86
2018-11-20T09:53:07.840Z,100099.48
2018-11-20T09:55:54.852Z,100107.41
2018-11-20T09:58:40.605Z,100112.14
2018-11-20T10:01:36.464Z,100103.62
2018-11-20T10:04:22.132Z,100100.94
2018-11-20T10:07:09.140Z,100098.44
2018-11-20T10:09:45.693Z,100085.31
2018-11-20T10:12:44.848Z,100085.69
2018-11-20T10:15:43.893Z,100105.13
2018-11-20T10:18:30.921Z,100089.11
2018-11-20T10:21:17.943Z,100076.98
2018-11-20T10:24:17.133Z,100076.45
2018-11-20T10:27:04.536Z,100064.72
2018-11-20T10:30:01.195Z,100055.25
2018-11-20T10:32:46.685Z,100046.64
2018-11-20T10:35:32.596Z,100048.70
2018-11-20T10:38:18.437Z,100031.85
2018-11-20T10:41:20.472Z,100023.24
2018-11-20T10:44:08.419Z,100021.02
2018-11-20T10:49:42.299Z,100018.87
2018-11-20T10:52:31.640Z,100016.11
2018-11-20T10:55:11.012Z,100012.22
2018-11-20T10:57:56.789Z,100007.86
2018-11-20T11:00:42.642Z,100008.56
2018-11-20T11:03:44.874Z,99999.78
2018-11-20T11:06:31.113Z,99993.14
2018-11-20T11:09:16.834Z,100010.53
2018-11-20T11:12:06.703Z,100014.12
2018-11-20T11:15:12.201Z,99993.67
2018-11-20T11:17:57.706Z,100003.28
2018-11-20T11:21:02.870Z,99988.19
2018-11-20T11:23:49.706Z,99986.52
2018-11-20T11:26:42.702Z,99983.66
2018-11-20T11:29:29.626Z,100002.81
2018-11-20T11:32:31.870Z,99988.12
2018-11-20T11:35:17.392Z,100001.52
2018-11-20T11:38:04.344Z,99999.39
2018-11-20T11:40:51.284Z,99991.91
2018-11-20T11:43:50.432Z,99982.47
2018-11-20T11:46:52.671Z,99999.32
2018-11-20T11:49:42.648Z,99983.66
2018-11-20T11:52:21.435Z,99983.23
2018-11-20T11:55:17.433Z,99977.18
2018-11-20T11:58:10.226Z,99991.74
2018-11-20T12:00:57.364Z,99970.46
2018-11-20T12:03:47.464Z,99973.42
2018-11-20T12:06:52.544Z,99964.27
2018-11-20T12:09:41.724Z,99968.16
2018-11-20T12:12:28.524Z,99962.81
2018-11-20T12:15:33.552Z,99955.86
2018-11-20T12:18:19.099Z,99959.38
2018-11-20T12:21:21.036Z,99949.38
2018-11-20T12:24:17.012Z,99934.57
2018-11-20T12:27:02.625Z,99939.59
2018-11-20T12:30:01.535Z,99937.29
2018-11-20T12:32:57.263Z,99923.31
2018-11-20T12:35:39.473Z,99938.98
2018-11-20T12:38:24.844Z,99938.59
2018-11-20T12:41:11.928Z,99941.41
2018-11-20T12:44:06.044Z,99940.00
2018-11-20T12:47:09.168Z,99953.08
2018-11-20T12:49:52.084Z,99941.84
2018-11-20T12:52:37.405Z,99926.20
2018-11-20T12:55:17.421Z,99930.63
2018-11-20T12:58:07.353Z,99924.14
2018-11-20T13:01:00.397Z,99922.85
2018-11-20T13:03:45.904Z,99943.44
2018-11-20T13:06:35.384Z,99933.75
2018-11-20T13:09:40.785Z,99938.81
2018-11-20T13:12:25.872Z,99925.45
2018-11-20T13:15:12.760Z,99951.02
2018-11-20T13:18:09.193Z,99938.39
2018-11-20T13:20:54.394Z,99924.44
2018-11-20T13:23:41.152Z,99949.88
2018-11-20T13:26:39.812Z,99953.17
2018-11-20T13:29:25.252Z,99948.39
2018-11-20T13:32:10.713Z,99942.88
2018-11-20T13:35:06.654Z,99943.64
2018-11-20T13:37:41.852Z,99956.59
2018-11-20T13:41:03.552Z,99963.41
2018-11-20T13:43:39.772Z,99956.27
2018-11-20T13:46:25.624Z,99946.28
2018-11-20T13:49:15.403Z,99939.67
2018-11-20T13:52:05.792Z,99939.23
2018-11-20T13:54:52.764Z,99945.78
2018-11-20T13:57:38.543Z,99945.72
2018-11-20T14:00:23.933Z,99939.63
2018-11-20T14:03:09.452Z,99938.03
2018-11-20T14:06:02.304Z,99943.58
2018-11-20T14:08:51.184Z,99949.20
2018-11-20T14:11:47.284Z,99943.09
2018-11-20T14:14:37.517Z,99941.47
2018-11-20T14:17:35.847Z,99937.12
2018-11-20T14:20:29.472Z,99941.73
2018-11-20T14:23:16.364Z,99938.88
2018-11-20T14:26:02.225Z,99937.81
2018-11-20T14:28:55.033Z,99942.52
2018-11-20T14:31:47.613Z,99941.17
2018-11-20T14:34:37.273Z,99943.50
2018-11-20T14:37:15.391Z,99939.77
2018-11-20T14:40:01.382Z,99940.48
2018-11-20T14:42:54.132Z,99933.70
2018-11-20T14:45:40.976Z,99937.48
2018-11-20T14:48:30.624Z,99935.52
2018-11-20T14:51:08.268Z,99932.78
2018-11-20T14:53:45.104Z,99940.84
2018-11-20T14:56:41.184Z,99940.06
2018-11-20T14:59:37.464Z,99944.26
2018-11-20T15:02:30.665Z,99933.37
2018-11-20T15:05:16.206Z,99933.06
2018-11-20T15:08:01.612Z,99931.00
2018-11-20T15:10:57.544Z,99939.36
2018-11-20T15:13:43.529Z,99930.56
2018-11-20T15:16:29.032Z,99947.63
2018-11-20T15:19:31.565Z,99935.68
2018-11-20T15:22:17.333Z,99936.05
2018-11-20T15:25:04.324Z,99927.41
2018-11-20T15:27:54.184Z,99947.55
2018-11-20T15:30:43.724Z,99933.06
2018-11-20T15:33:39.750Z,99937.69
2018-11-20T15:36:26.844Z,99942.46
2018-11-20T15:39:19.632Z,99937.66
2018-11-20T15:42:06.970Z,99931.97
2018-11-20T15:44:54.644Z,99946.66
2018-11-20T15:47:50.884Z,99954.87
2018-11-20T15:50:36.604Z,99943.72
2018-11-20T15:53:39.604Z,99930.39
2018-11-20T15:56:19.604Z,99934.72
2018-11-20T15:59:12.565Z,99930.02
2018-11-20T16:02:02.464Z,99935.04
2018-11-20T16:04:49.405Z,99929.87
2018-11-20T16:07:36.525Z,99932.93
2018-11-20T16:10:22.685Z,99939.40
2018-11-20T16:13:09.064Z,99937.73
2018-11-20T16:15:58.784Z,99945.41
2018-11-20T16:18:50.852Z,99937.34
2018-11-20T16:21:30.544Z,99951.26
2018-11-20T16:24:16.644Z,99929.73
2018-11-20T16:27:06.904Z,99934.33
2018-11-20T16:29:54.065Z,99936.22
2018-11-20T16:32:51.520Z,99935.33
2018-11-20T16:35:41.112Z,99939.11
2018-11-20T16:38:34.544Z,99924.89
2018-11-20T16:41:20.424Z,99924.31
2018-11-20T16:44:19.617Z,99937.23
2018-11-20T16:47:07.103Z,99935.08
2018-11-20T16:49:59.724Z,99932.97
2018-11-20T16:52:49.824Z,99945.91
2018-11-20T16:55:45.865Z,99941.44
2018-11-20T16:58:35.524Z,99941.14
2018-11-20T17:01:28.412Z,99929.64
2018-11-20T17:04:27.603Z,99916.03
2018-11-20T17:07:29.524Z,99936.73
2018-11-20T17:10:19.644Z,99947.77
2018-11-20T17:13:21.503Z,99950.91
2018-11-20T17:16:24.004Z,99944.97
2018-11-20T17:19:09.447Z,99944.50
2018-11-20T17:21:56.424Z,99945.73
2018-11-20T17:24:46.204Z,99952.20
2018-11-20T17:27:48.432Z,99950.81
2018-11-20T17:30:34.072Z,99957.59
2018-11-20T17:33:16.776Z,99942.22
2018-11-20T17:36:02.144Z,99941.85
2018-11-20T17:38:49.064Z,99939.33
2018-11-20T17:41:34.967Z,99942.99
2018-11-20T17:44:33.869Z,99962.72
2018-11-20T17:47:23.812Z,99945.43
2018-11-20T17:50:10.793Z,99952.36
2018-11-20T17:53:09.965Z,99949.47
2018-11-20T17:55:55.384Z,99958.58
2018-11-20T17:58:40.744Z,99961.64
2018-11-20T18:01:26.300Z,99961.64
2018-11-20T18:04:16.079Z,99945.48
2018-11-20T18:07:01.704Z,99954.64
2018-11-20T18:09:47.093Z,99971.63
2018-11-20T18:12:39.964Z,99966.45
2018-11-20T18:15:42.414Z,99966.20
2018-11-20T18:18:41.119Z,99972.23
2018-11-20T18:21:26.523Z,99977.78
2018-11-20T18:24:07.380Z,99972.77
2018-11-20T18:26:57.228Z,99975.50
2018-11-20T18:29:46.344Z,99977.63
2018-11-20T18:32:29.472Z,99974.98
2018-11-20T18:35:31.365Z,99975.50
2018-11-20T18:38:16.005Z,99962.87
2018-11-20T18:41:01.408Z,99977.87
2018-11-20T18:43:54.244Z,99974.58
2018-11-20T18:46:40.275Z,99972.23
2018-11-20T18:49:25.712Z,99974.42
2018-11-20T18:52:18.303Z,99970.64
2018-11-20T18:55:03.672Z,99967.89
2018-11-20T18:57:49.684Z,99978.31
2018-11-20T19:00:43.764Z,99961.11
2018-11-20T19:03:29.312Z,99957.07
2018-11-20T19:06:28.043Z,99961.48
2018-11-20T19:09:13.448Z,99961.48
2018-11-20T19:12:03.737Z,99962.03
2018-11-20T19:14:57.644Z,99964.07
2018-11-20T19:17:43.134Z,99959.45
2018-11-20T19:20:28.804Z,99962.19
2018-11-20T19:23:21.525Z,99965.23
2018-11-20T19:26:11.084Z,99968.97
2018-11-20T19:28:58.331Z,99957.31
2018-11-20T19:31:53.060Z,99950.69
2018-11-20T19:34:41.124Z,99963.48
2018-11-20T19:37:26.737Z,99965.23
2018-11-20T19:40:12.164Z,99964.41
2018-11-20T19:43:17.212Z,99974.30
2018-11-20T19:46:03.084Z,99982.44
2018-11-20T19:48:50.124Z,99985.55
2018-11-20T19:51:37.291Z,99997.81
2018-11-20T19:54:29.112Z,100008.43
2018-11-20T19:57:14.832Z,100009.17
2018-11-20T20:00:04.444Z,100010.46
2018-11-20T20:02:51.393Z,100008.70
2018-11-20T20:05:37.372Z,100006.42
2018-11-20T20:08:22.974Z,100021.90
2018-11-20T20:10:58.348Z,100013.14
2018-11-20T20:13:51.192Z,100011.08
2018-11-20T20:16:37.231Z,100013.88
2018-11-20T20:19:31.024Z,100004.91
2018-11-20T20:22:20.664Z,100000.20
2018-11-20T20:25:06.352Z,100017.64
2018-11-20T20:28:08.645Z,100021.84
2018-11-20T20:30:54.064Z,100012.38
2018-11-20T20:33:39.763Z,100019.62
2018-11-20T20:36:29.425Z,100033.55
2018-11-20T20:39:14.832Z,100032.72
2018-11-20T20:41:53.463Z,100039.11
2018-11-20T20:44:43.412Z,100047.65
2018-11-20T20:47:30.463Z,100059.55
2018-11-20T20:50:29.403Z,100047.95
2018-11-20T20:53:09.953Z,100048.88
2018-11-20T20:55:55.265Z,100054.68
2018-11-20T20:58:45.093Z,100053.59
2018-11-20T21:01:32.631Z,100051.69
2018-11-20T21:04:09.145Z,100047.34
2018-11-20T21:06:46.512Z,100047.58
2018-11-20T21:09:33.544Z,100053.29
2018-11-20T21:12:19.265Z,100050.33
2018-11-20T21:15:06.904Z,100053.45
2018-11-20T21:17:52.271Z,100056.34
2018-11-20T21:20:45.392Z,100051.94
2018-11-20T21:23:38.304Z,100058.10
2018-11-20T21:26:36.967Z,100050.48
2018-11-20T21:29:24.892Z,100052.67
2018-11-20T21:32:24.482Z,100053.66
2018-11-20T21:35:26.897Z,100054.43
2018-11-20T21:38:13.114Z,100043.23
2018-11-20T21:41:05.724Z,100032.50
2018-11-20T21:43:51.924Z,100023.50
2018-11-20T21:46:44.764Z,100026.87
2018-11-20T21:49:30.603Z,100025.41
2018-11-20T21:52:16.132Z,100030.91
2018-11-20T21:55:03.065Z,100047.86
2018-11-20T21:57:48.812Z,100071.73
2018-11-20T22:00:47.665Z,100080.19
2018-11-20T22:03:25.931Z,100096.03
2018-11-20T22:06:11.044Z,100098.99
2018-11-20T22:09:16.186Z,100094.89
2018-11-20T22:12:09.005Z,100101.98
2018-11-20T22:14:51.604Z,100101.83
2018-11-20T22:17:38.584Z,100108.16
2018-11-20T22:20:25.104Z,100114.31
2018-11-20T22:23:10.543Z,100110.18
2018-11-20T22:25:57.524Z,100111.11
2018-11-20T22:28:59.664Z,100119.17
2018-11-20T22:31:45.464Z,100109.44
2018-11-20T22:34:44.325Z,100103.17
2018-11-20T22:37:46.585Z,100111.08
2018-11-20T22:40:32.472Z,100106.25
2018-11-20T22:43:18.040Z,100106.72
2018-11-20T22:46:22.953Z,100104.66
2018-11-20T22:49:09.892Z,100104.92
2018-11-20T22:52:12.205Z,100105.59
2018-11-20T22:54:57.932Z,100105.73
2018-11-20T22:57:43.324Z,100104.04
2018-11-20T23:00:23.805Z,100113.94
2018-11-20T23:03:22.647Z,100119.42
2018-11-20T23:06:16.588Z,100109.53
2018-11-20T23:08:44.044Z,100113.73
2018-11-20T23:11:11.524Z,100130.81
2018-11-20T23:13:39.133Z,100125.48
2018-11-20T23:16:06.604Z,100139.44
2018-11-20T23:18:34.085Z,100131.72
2018-11-20T23:21:01.565Z,100144.09
2018-11-20T23:23:29.154Z,100150.22
2018-11-20T23:25:56.612Z,100153.33
2018-11-20T23:28:24.232Z,100152.20
2018-11-20T23:30:51.685Z,100158.15
2018-11-20T23:33:19.145Z,100156.30
2018-11-20T23:35:46.672Z,100168.94
2018-11-20T23:38:14.191Z,100164.84
2018-11-20T23:40:41.604Z,100178.73
2018-11-20T23:43:09.207Z,100167.84
2018-11-20T23:45:36.641Z,100158.47
2018-11-20T23:48:04.167Z,100160.23
2018-11-20T23:50:32.264Z,100172.41
2018-11-20T23:52:59.764Z,100176.20
2018-11-20T23:55:27.285Z,100189.87
2018-11-20T23:57:54.719Z,100191.08
